Tuesday, September 2, 2014, 7:39 PM EDT

KJYO, Leesburg / Godfrey

Location: Leesburg, VA, United States Lat: 39.083
Local Time: 7:39 PM EDT (23:39 GMT) Lon: -77.567
Time Zone: US/Eastern Elev: 390 ft

Show me the last for .
Show Decoded

2014-09-02 19:15 METAR KJYO 022315Z AUTO 00000KT 10SM VCTS SCT049 SCT060 SCT090 23/23 A2989 RMK
                 AO2 LTG DSNT NE THRU SE =
2014-09-02 18:55 METAR KJYO 022255Z AUTO 03006KT 3SM +TSRA SCT014 BKN065 OVC085 23/23 A2989 RMK
                 AO2 LTG DSNT ALQS P0056 =
2014-09-02 18:35 METAR KJYO 022235Z AUTO 28015G34KT 1 1/4SM +TSRA SCT011 BKN045 OVC070 26/23
                 A2995 RMK AO2 VIS 1/2V5 LTG DSNT ALQS P0023 =
2014-09-02 18:15 METAR KJYO 022215Z AUTO 04006KT 10SM VCTS SCT060 SCT070 BKN090 26/22 A2989 RMK
                 AO2 LTG DSNT NE SW AND W =
2014-09-02 17:55 METAR KJYO 022155Z AUTO 02006KT 10SM SCT049 SCT060 BKN070 27/22 A2990 RMK AO2
                 LTG DSNT NE =
2014-09-02 17:35 METAR KJYO 022135Z AUTO 03006G16KT 10SM SCT049 BKN065 27/22 A2990 RMK AO2 =
2014-09-02 17:15 METAR KJYO 022115Z AUTO 05004KT 10SM CLR 29/22 A2988 RMK AO2 LTG DSNT NW THRU E
                 =
2014-09-02 16:55 METAR KJYO 022055Z AUTO 10007KT 10SM CLR 30/22 A2986 RMK AO2 LTG DSNT NW THRU E
                 =
2014-09-02 16:35 METAR KJYO 022035Z AUTO 10003KT 10SM CLR 31/22 A2988 RMK AO2 LTG DSNT E =
2014-09-02 16:15 METAR KJYO 022015Z AUTO 04003G14KT 10SM SCT050 SCT065 SCT075 29/22 A2990 RMK AO2
                 LTG DSNT NE THRU SW =
2014-09-02 15:55 METAR KJYO 021955Z AUTO 28004G16KT 10SM TS OVC055 29/22 A2992 RMK AO2 LTG DSNT
                 ALQS =
2014-09-02 15:35 METAR KJYO 021935Z AUTO 18007KT 10SM VCTS SCT049 BKN055 34/22 A2991 RMK AO2 LTG
                 DSNT ALQS =
2014-09-02 15:15 METAR KJYO 021915Z AUTO 19009KT 10SM TS SCT049 BKN055 BKN065 33/22 A2991 RMK AO2
                 LTG DSNT N AND NW =
2014-09-02 14:55 METAR KJYO 021855Z AUTO 21009KT 10SM SCT047 SCT050 33/22 A2992 RMK AO2 LTG DSNT
                 NW =
2014-09-02 14:35 METAR KJYO 021835Z AUTO 20009KT 170V230 10SM SCT048 33/23 A2993 RMK AO2 =
2014-09-02 14:15 METAR KJYO 021815Z AUTO 20006KT 10SM SCT046 33/22 A2994 RMK AO2 =
2014-09-02 13:55 METAR KJYO 021755Z AUTO 21005KT 10SM SCT050 SCT065 33/23 A2994 RMK AO2 =
2014-09-02 13:15 METAR KJYO 021715Z AUTO 23005KT 10SM SCT044 SCT050 SCT065 33/23 A2996 RMK AO2 =
2014-09-02 12:55 METAR KJYO 021655Z AUTO 20007KT 10SM SCT043 SCT050 BKN065 32/23 A2997 RMK AO2 =
2014-09-02 12:35 METAR KJYO 021635Z AUTO 22004KT 10SM SCT047 SCT055 BKN065 32/23 A2998 RMK AO2 =
2014-09-02 12:15 METAR KJYO 021615Z AUTO 24006KT 10SM SCT047 SCT055 SCT065 32/23 A2998 RMK AO2 =
2014-09-02 11:55 METAR KJYO 021555Z AUTO 24004KT 10SM SCT044 31/22 A2999 RMK AO2 =
2014-09-02 11:35 METAR KJYO 021535Z AUTO 21003KT 10SM SCT044 31/22 A2999 RMK AO2 =
2014-09-02 11:15 METAR KJYO 021515Z AUTO 26006KT 10SM CLR 31/23 A3000 RMK AO2 =
2014-09-02 10:55 METAR KJYO 021455Z AUTO 22007KT 10SM CLR 31/23 A3000 RMK AO2 =
2014-09-02 10:35 METAR KJYO 021435Z AUTO 23003KT 10SM CLR 31/22 A3001 RMK AO2 =
2014-09-02 10:15 METAR KJYO 021415Z AUTO 25003KT 10SM CLR 30/23 A3000 RMK AO2 =
2014-09-02 09:55 METAR KJYO 021355Z AUTO 23004KT 10SM CLR 29/23 A3000 RMK AO2 =
2014-09-02 09:35 METAR KJYO 021335Z AUTO 22004KT 10SM CLR 28/23 A3000 RMK AO2 =
2014-09-02 09:15 METAR KJYO 021315Z AUTO 22004KT 10SM CLR 27/23 A3000 RMK AO2 =
2014-09-02 08:55 METAR KJYO 021255Z AUTO 24003KT 10SM CLR 26/24 A2999 RMK AO2 =
2014-09-02 08:35 METAR KJYO 021235Z AUTO 00000KT 10SM CLR 25/23 A3000 RMK AO2 =
2014-09-02 08:15 METAR KJYO 021215Z AUTO 00000KT 10SM CLR 23/23 A2999 RMK AO2 =
2014-09-02 07:55 METAR KJYO 021155Z AUTO 00000KT 10SM SCT120 23/23 A2999 RMK AO2 =
2014-09-02 07:35 METAR KJYO 021135Z AUTO 00000KT 10SM CLR 23/23 A2999 RMK AO2 =
2014-09-02 07:15 METAR KJYO 021115Z AUTO 00000KT 10SM SCT120 22/22 A2999 RMK AO2 =
2014-09-02 06:55 METAR KJYO 021055Z AUTO 20003KT 10SM CLR 22/22 A2999 RMK AO2 =
2014-09-02 06:15 METAR KJYO 021015Z AUTO 00000KT 10SM CLR 22/22 A2998 RMK AO2 =
2014-09-02 05:55 METAR KJYO 020955Z AUTO 23003KT 10SM SCT120 22/22 A2997 RMK AO2 =
2014-09-02 05:35 METAR KJYO 020935Z AUTO 23003KT 10SM CLR 22/22 A2997 RMK AO2 =
2014-09-02 05:15 METAR KJYO 020915Z AUTO 21003KT 10SM SCT100 22/22 A2997 RMK AO2 =
2014-09-02 04:55 METAR KJYO 020855Z AUTO 21004KT 10SM CLR 22/22 A2996 RMK AO2 =
2014-09-02 04:35 METAR KJYO 020835Z AUTO 20004KT 10SM CLR 22/22 A2996 RMK AO2 =
2014-09-02 04:15 METAR KJYO 020815Z AUTO 20003KT 10SM CLR 22/22 A2997 RMK AO2 =
2014-09-02 03:55 METAR KJYO 020755Z AUTO 22003KT 10SM CLR 22/22 A2997 RMK AO2 =
2014-09-02 03:35 METAR KJYO 020735Z AUTO 00000KT 10SM CLR 22/22 A2997 RMK AO2 =
2014-09-02 03:15 METAR KJYO 020715Z AUTO 00000KT 10SM CLR 22/22 A2997 RMK AO2 =
2014-09-02 02:35 METAR KJYO 020635Z AUTO 20003KT 10SM CLR 23/23 A2998 RMK AO2 =
2014-09-02 02:15 METAR KJYO 020615Z AUTO 00000KT 10SM CLR 23/23 A2998 RMK AO2 LTG DSNT E =
2014-09-02 01:55 METAR KJYO 020555Z AUTO 00000KT 10SM CLR 24/24 A2998 RMK AO2 =
2014-09-02 01:35 METAR KJYO 020535Z AUTO 00000KT 10SM CLR 24/24 A2998 RMK AO2 =
2014-09-02 01:15 METAR KJYO 020515Z AUTO 19005KT 10SM CLR 25/24 A2998 RMK AO2 =
2014-09-02 00:55 METAR KJYO 020455Z AUTO 00000KT 10SM CLR 25/25 A2999 RMK AO2 LTG DSNT NE =
2014-09-02 00:35 METAR KJYO 020435Z AUTO 00000KT 10SM CLR 25/25 A2999 RMK AO2 LTG DSNT E =
2014-09-02 00:15 METAR KJYO 020415Z AUTO 26004KT 10SM SCT065 SCT075 25/25 A2999 RMK AO2 =
2014-09-01 23:55 METAR KJYO 020355Z AUTO 27004KT 10SM SCT065 BKN075 BKN110 25/25 A2999 RMK AO2 =
2014-09-01 23:35 METAR KJYO 020335Z AUTO 22004KT 10SM BKN065 BKN110 25/25 A2999 RMK AO2 =
2014-09-01 23:15 METAR KJYO 020315Z AUTO 00000KT 10SM SCT060 SCT075 SCT100 25/25 A2999 RMK AO2 =
2014-09-01 22:55 METAR KJYO 020255Z AUTO 00000KT 10SM BKN060 BKN075 BKN100 25/25 A2999 RMK AO2 =
2014-09-01 22:35 METAR KJYO 020235Z AUTO 00000KT 10SM BKN070 BKN075 OVC085 26/25 A2999 RMK AO2 =
2014-09-01 22:15 METAR KJYO 020215Z AUTO 00000KT 10SM SCT065 BKN075 OVC090 25/25 A2999 RMK AO2 =
2014-09-01 21:55 METAR KJYO 020155Z AUTO 00000KT 10SM SCT070 BKN090 25/25 A2998 RMK AO2 =
2014-09-01 21:35 METAR KJYO 020135Z AUTO 00000KT 10SM SCT090 25/25 A2998 RMK AO2 =
2014-09-01 21:15 METAR KJYO 020115Z AUTO 00000KT 10SM SCT070 26/25 A2998 RMK AO2 =
2014-09-01 20:55 METAR KJYO 020055Z AUTO 20003KT 10SM SCT070 26/25 A2998 RMK AO2 =
2014-09-01 20:35 METAR KJYO 020035Z AUTO 20003KT 10SM CLR 26/25 A2998 RMK AO2 =
2014-09-01 20:15 METAR KJYO 020015Z AUTO 00000KT 10SM CLR 27/25 A2997 RMK AO2 =
2014-09-01 19:55 METAR KJYO 012355Z AUTO 17005KT 10SM CLR 28/25 A2996 RMK AO2 =

Support USWX by starting your Amazon purchase here.